Last 24 Hours

Squaw-Belmont 8000'

Hourly Data | America/Los_Angeles
as of 12/15/19 10:57 AM PST
Date & Time Temp (°F) RH (%) Dew Pt (°F) Wet Bulb (°F) Wind Dir (°) Wind Spd (mph) Wind Gust (mph) WindChill (°F) Latest Rain (In) New Snow (in) SnowDepth (in) Daily Min Temp (°F) Daily Max Temp (°F) Daily Rain (In)
12/15/19 - 1000 16.0 98 15.4 15.8 NNE | 31 4.2 7.8 9.2 0.00 0.3 71.0 12.4 18.7 0.14
12/15/19 - 0900 14.6 97 13.9 14.4 N | 356 2.0 4.6 12.9 0.00 0.3 71.1 12.4 18.7 0.14
12/15/19 - 0800 12.5 97 11.8 12.3 NNW | 338 6.7 13.9 4.3 0.01 0.2 71.3 12.4 18.7 0.14
12/15/19 - 0700 13.1 97 12.4 12.9 NW | 325 9.8 15.6 1.4 0.00 0.3 71.4 13.1 18.7 0.13
12/15/19 - 0600 14.7 98 14.2 14.5 NW | 320 9.7 16.4 2.1 0.00 0.4 71.5 13.6 18.7 0.13
12/15/19 - 0500 13.8 98 13.3 13.7 NW | 304 9.5 16.9 2.0 0.00 0.3 71.6 13.6 18.7 0.13
12/15/19 - 0400 14.1 98 13.6 14.0 WNW | 287 6.6 14.7 5.8 0.01 4.9 71.8 14.1 18.7 0.13
12/15/19 - 0300 15.9 98 15.5 15.7 WSW | 252 8.2 16.3 6.4 0.01 4.9 71.8 15.9 18.7 0.12
12/15/19 - 0200 16.6 98 16.2 16.4 WSW | 238 8.4 17.5 7.3 0.04 5.0 72.1 16.6 18.7 0.11
12/15/19 - 0100 18.3 99 18.0 18.2 WNW | 285 8.5 19.2 8.4 0.07 4.9 72.1 17.6 18.7 0.07
12/15/19 - 0000 18.6 99 18.4 18.5 W | 262 10.0 24.6 8.0 0.06 4.5 71.5 18.5 27.3 0.57
12/14/19 - 2300 19.1 99 18.9 19.0 W | 264 10.7 26.0 7.9 0.05 4.1 71.4 18.9 27.3 0.51
12/14/19 - 2200 19.4 99 19.2 19.3 SSW | 206 10.9 25.4 8.4 0.06 3.5 71.0 18.9 27.3 0.46
12/14/19 - 2100 19.6 99 19.5 19.6 SSW | 199 9.3 20.9 9.8 0.06 2.1 69.1 18.9 27.3 0.40
12/14/19 - 2000 19.8 99 19.6 19.7 SSW | 192 9.5 20.9 9.2 0.05 1.2 68.3 18.9 27.3 0.34
12/14/19 - 1900 19.2 99 19.0 19.2 S | 181 9.1 24.2 10.0 0.00 0.5 67.8 18.9 27.3 0.29
12/14/19 - 1800 19.0 99 18.8 18.9 SSE | 166 12.6 24.1 6.8 0.00 0.5 67.4 18.9 27.3 0.29
12/14/19 - 1700 19.8 99 19.5 19.6 S | 185 9.9 20.1 9.5 0.00 0.5 67.5 19.7 27.3 0.29
12/14/19 - 1600 21.1 99 20.9 21.0 SSW | 200 9.3 19.2 11.8 0.00 0.4 67.7 20.2 27.3 0.29
12/14/19 - 1500 22.0 98 21.7 21.9 S | 191 9.0 24.0 13.1 0.00 0.3 67.6 20.2 27.3 0.29
12/14/19 - 1400 23.0 99 22.7 22.9 S | 190 9.8 19.9 12.9 0.00 0.2 67.8 20.2 27.3 0.29
12/14/19 - 1300 22.2 98 21.8 22.0 SSW | 195 8.0 19.2 14.2 0.00 0.2 67.9 20.2 27.3 0.29
12/14/19 - 1200 23.2 98 22.8 23.0 SSW | 212 10.4 20.9 12.7 0.03 0.2 68.1 20.2 27.3 0.29
12/14/19 - 1100 22.8 98 22.3 22.6 SW | 215 11.5 19.5 11.1 0.02 0.1 68.1 20.2 27.3 0.26
12/14/19 - 1000 21.8 99 21.5 21.7 SSW | 210 9.1 16.2 11.5 0.00 0.2 68.1 20.2 27.3 0.24
Max 23.2 99 22.8 23.0 - 12.6 26.0 14.2 0.07 5.0 72.1 20.2 27.3 0.57
Avg 18.4 98 18.0 18.3 - 8.9 18.7 8.7 0.02 1.6 69.8 - - -
Min 12.5 97 11.8 12.3 - 2.0 4.6 1.4 0.00 0.1 67.4 12.4 18.7 0.07
Total - - - - - - - - 0.47 - - - - -